Pleasant Hope, Missouri
Current Conditions -  °F | °C
As of 5:52 PM on Wednesday 22 Oct 2014 (Local Time) from KSGF Reporting Station
Clear Clear  
Wind Chill: 66°   Ceiling: Unl
Heat Index: 66°   Visibility: 10mi
Dew Point: 48°   Wind: 6mph
Humidity: 52%   Direction: 150°SSE
Pressure: 30.14"   Gusts: NA
Location:  37.46°N, 93.27°W
Report Text: KSGF 222252Z 15005KT 10SM CLR 19/09 A3014 RMK AO2 SLP202 T01890089
Loading
Personal Weather Stations






























Interactive Weather Map
Tropical Storm Tracking
New forecast layout! Learn more

10-Day Weather Forecast

Advertisements
Track Severe Weather on mobile